Time;durP1;ratioP1;P1;durP2;ratioP2;P2;SDS_P1;SDS_P2;PMS_P1;PMS_P2;Temp;Humidity;BMP_temperature;BMP_pressure;BME280_temperature;BME280_humidity;BME280_pressure;Samples;Min_cycle;Max_cycle;Signal;HPM_P1;HPM_P2
2023/05/01 00:00:51;;;;;;;0.45;0.45;;;;;;;11.35;61.68;101304.47;4964858;28;20031;-57
2023/05/01 00:03:17;;;;;;;0.95;0.60;;;;;;;11.37;60.48;101291.44;4964567;28;20039;-54
2023/05/01 00:05:46;;;;;;;0.85;0.43;;;;;;;11.29;60.51;101287.75;4969953;28;20015;-57
2023/05/01 00:08:12;;;;;;;0.52;0.50;;;;;;;11.37;60.96;101284.13;4970612;28;20038;-61
2023/05/01 00:10:38;;;;;;;0.50;0.50;;;;;;;11.39;61.85;101284.56;4949054;28;20038;-56
2023/05/01 00:13:04;;;;;;;0.40;0.40;;;;;;;11.38;61.90;101282.22;4972719;28;20027;-62
2023/05/01 00:15:30;;;;;;;0.82;0.60;;;;;;;11.50;60.78;101284.84;4972706;28;20037;-57
2023/05/01 00:17:56;;;;;;;1.10;0.65;;;;;;;11.53;60.06;101284.16;4941040;28;20552;-61
2023/05/01 00:20:24;;;;;;;0.50;0.50;;;;;;;11.50;60.41;101274.84;4968722;28;20029;-52
2023/05/01 00:22:50;;;;;;;0.85;0.50;;;;;;;11.41;61.26;101271.53;4966386;28;20106;-62
2023/05/01 00:25:15;;;;;;;1.17;0.85;;;;;;;11.33;61.12;101269.78;4966095;28;20192;-61
2023/05/01 00:27:41;;;;;;;0.88;0.73;;;;;;;11.22;60.65;101270.59;4966510;28;20031;-61
2023/05/01 00:30:08;;;;;;;0.50;0.45;;;;;;;11.34;60.21;101271.31;4969977;28;20170;-61
2023/05/01 00:32:33;;;;;;;0.88;0.77;;;;;;;11.37;60.58;101269.84;4964883;28;20117;-61
2023/05/01 00:34:59;;;;;;;0.50;0.50;;;;;;;11.24;60.67;101261.06;4964408;28;20121;-61
2023/05/01 00:37:24;;;;;;;0.73;0.73;;;;;;;11.21;62.28;101259.03;4968147;28;20516;-60
2023/05/01 00:39:50;;;;;;;5.32;0.43;;;;;;;11.25;61.86;101259.13;4969668;28;20046;-61
2023/05/01 00:42:15;;;;;;;0.63;0.47;;;;;;;11.28;62.47;101253.06;4967083;28;20026;-61
2023/05/01 00:44:41;;;;;;;0.88;0.88;;;;;;;11.15;63.40;101256.94;4954507;28;20039;-61
2023/05/01 00:47:06;;;;;;;2.95;0.90;;;;;;;11.21;62.42;101253.63;4950084;28;20031;-61
2023/05/01 00:49:32;;;;;;;0.55;0.40;;;;;;;11.10;63.14;101251.78;4947472;28;20506;-59
2023/05/01 00:51:58;;;;;;;1.60;1.50;;;;;;;10.87;64.66;101246.94;4958692;28;20035;-61
2023/05/01 00:54:26;;;;;;;0.77;0.50;;;;;;;10.94;65.32;101248.25;4951903;28;20030;-61
2023/05/01 00:56:52;;;;;;;1.13;1.02;;;;;;;10.92;65.18;101248.59;4963112;28;20549;-61
2023/05/01 00:59:17;;;;;;;0.70;0.57;;;;;;;10.88;64.19;101240.41;4946199;28;20062;-61
2023/05/01 01:01:43;;;;;;;0.47;0.47;;;;;;;10.82;64.48;101244.47;4969666;28;20038;-61
2023/05/01 01:04:09;;;;;;;0.50;0.50;;;;;;;10.66;63.74;101243.63;4939856;28;20060;-61
2023/05/01 01:06:44;;;;;;;1.08;0.88;;;;;;;10.62;65.41;101233.88;4964870;28;20058;-61
2023/05/01 01:09:32;;;;;;;0.70;0.60;;;;;;;10.48;66.12;101228.84;4958244;28;20492;-61
2023/05/01 01:12:23;;;;;;;0.93;0.65;;;;;;;10.58;65.01;101228.38;4963118;28;20128;-60
2023/05/01 01:15:01;;;;;;;0.32;0.30;;;;;;;10.44;65.24;101229.84;4968818;28;20042;-60
2023/05/01 01:17:56;;;;;;;0.70;0.70;;;;;;;10.39;65.61;101233.56;4960010;28;20039;-61
2023/05/01 01:20:39;;;;;;;1.70;0.52;;;;;;;10.38;66.07;101237.38;4958423;28;20038;-58
2023/05/01 01:23:14;;;;;;;0.30;0.30;;;;;;;10.30;66.76;101229.44;4935385;28;20042;-61
2023/05/01 01:25:53;;;;;;;0.20;0.20;;;;;;;10.31;66.86;101228.31;4965755;28;20039;-61
2023/05/01 01:28:39;;;;;;;6.60;0.63;;;;;;;10.33;66.49;101221.47;4942889;28;21921;-61
2023/05/01 01:31:31;;;;;;;0.47;0.45;;;;;;;10.35;65.57;101226.50;4962327;28;20043;-61
2023/05/01 01:34:03;;;;;;;1.30;0.60;;;;;;;10.46;66.03;101220.31;4966830;28;20048;-59
2023/05/01 01:36:55;;;;;;;0.50;0.50;;;;;;;10.37;66.27;101233.13;4963410;28;20030;-60
2023/05/01 01:39:27;;;;;;;1.85;0.70;;;;;;;10.22;66.16;101227.66;4950432;28;20294;-61
2023/05/01 01:41:55;;;;;;;0.80;0.70;;;;;;;10.14;67.69;101223.97;4967431;28;20030;-61
2023/05/01 01:44:37;;;;;;;1.23;0.68;;;;;;;10.22;67.20;101214.19;4948550;28;20026;-59
2023/05/01 01:47:07;;;;;;;0.57;0.47;;;;;;;10.07;68.14;101222.88;4951808;28;20034;-61
2023/05/01 01:49:36;;;;;;;0.25;0.25;;;;;;;10.07;67.29;101226.38;4940968;28;20043;-60
2023/05/01 01:52:05;;;;;;;0.77;0.73;;;;;;;10.09;68.14;101210.69;4943848;28;20679;-61
2023/05/01 01:54:41;;;;;;;3.67;0.98;;;;;;;10.17;66.54;101212.50;4952016;28;20049;-60
2023/05/01 01:57:10;;;;;;;1.55;0.47;;;;;;;10.14;67.01;101209.72;4933780;28;20025;-61
2023/05/01 01:59:35;;;;;;;0.98;0.93;;;;;;;10.10;67.50;101208.81;4953399;28;20034;-60
2023/05/01 02:02:03;;;;;;;1.58;0.60;;;;;;;10.22;67.06;101206.88;4937146;28;20037;-60
2023/05/01 02:04:31;;;;;;;1.10;1.00;;;;;;;10.20;67.53;101213.75;4948923;28;20039;-60
2023/05/01 02:07:00;;;;;;;1.23;0.85;;;;;;;10.25;66.04;101197.34;4940140;28;20094;-60
2023/05/01 02:09:28;;;;;;;0.40;0.40;;;;;;;10.29;66.34;101199.03;4962319;28;20031;-60
2023/05/01 02:11:55;;;;;;;1.02;0.68;;;;;;;10.25;66.37;101200.03;4925957;29;20038;-59
2023/05/01 02:14:25;;;;;;;2.65;0.63;;;;;;;10.14;66.79;101202.44;4935750;28;20054;-60
2023/05/01 02:16:51;;;;;;;0.40;0.40;;;;;;;10.13;67.20;101194.66;4949885;28;20027;-60
2023/05/01 02:19:18;;;;;;;0.55;0.47;;;;;;;10.21;66.83;101193.75;4952045;28;20074;-59
2023/05/01 02:21:45;;;;;;;1.35;0.73;;;;;;;10.04;67.10;101187.47;4941238;28;20111;-61
2023/05/01 02:24:12;;;;;;;0.55;0.55;;;;;;;10.13;66.68;101187.38;4960282;28;20037;-60
2023/05/01 02:26:41;;;;;;;2.25;0.57;;;;;;;9.99;67.54;101185.00;4957576;28;20060;-61
2023/05/01 02:29:08;;;;;;;1.42;1.10;;;;;;;9.93;67.53;101188.25;4930788;28;20054;-59
2023/05/01 02:31:33;;;;;;;0.52;0.52;;;;;;;9.82;68.25;101177.19;4958017;28;20066;-60
2023/05/01 02:33:59;;;;;;;0.73;0.57;;;;;;;9.79;68.23;101180.50;4945034;28;20486;-60
2023/05/01 02:36:26;;;;;;;0.35;0.35;;;;;;;9.77;68.05;101182.00;4965746;28;20164;-60
2023/05/01 02:38:52;;;;;;;2.33;0.60;;;;;;;9.72;68.50;101174.13;4941096;28;20394;-59
2023/05/01 02:41:20;;;;;;;0.68;0.68;;;;;;;9.83;68.04;101177.97;4964563;28;20474;-59
2023/05/01 02:43:49;;;;;;;0.73;0.60;;;;;;;9.67;68.78;101163.59;4944314;28;20113;-59
2023/05/01 02:46:17;;;;;;;1.85;0.63;;;;;;;9.58;69.09;101157.56;4951451;28;20084;-61
2023/05/01 02:48:44;;;;;;;1.15;0.88;;;;;;;9.54;68.89;101165.50;4949139;28;20037;-60
2023/05/01 02:51:10;;;;;;;1.85;0.75;;;;;;;9.61;69.35;101159.56;4947564;28;20027;-59
2023/05/01 02:53:38;;;;;;;0.60;0.60;;;;;;;9.49;69.74;101170.31;4925325;28;20042;-60
2023/05/01 02:56:14;;;;;;;1.05;0.65;;;;;;;9.41;69.81;101149.69;4926133;28;20114;-61
2023/05/01 02:58:41;;;;;;;0.60;0.47;;;;;;;9.46;69.23;101157.53;4967224;28;20506;-61
2023/05/01 03:01:06;;;;;;;2.17;0.98;;;;;;;9.52;69.35;101150.84;4952450;28;20105;-61
2023/05/01 03:03:32;;;;;;;0.45;0.43;;;;;;;9.47;69.36;101143.75;4967657;28;20030;-61
2023/05/01 03:05:58;;;;;;;0.50;0.50;;;;;;;9.39;69.41;101143.88;4948393;28;20027;-61
2023/05/01 03:08:23;;;;;;;0.93;0.65;;;;;;;9.32;69.81;101149.00;4960951;28;20513;-61
2023/05/01 03:10:49;;;;;;;0.52;0.52;;;;;;;9.36;69.77;101149.91;4962820;28;20042;-61
2023/05/01 03:13:14;;;;;;;0.43;0.40;;;;;;;9.36;69.86;101145.31;4947833;28;20039;-60
2023/05/01 03:15:40;;;;;;;0.70;0.70;;;;;;;9.32;70.20;101140.94;4939488;28;20059;-61
2023/05/01 03:18:06;;;;;;;1.92;1.00;;;;;;;9.23;70.76;101140.25;4944148;28;20422;-60
2023/05/01 03:20:31;;;;;;;2.85;0.50;;;;;;;9.21;70.41;101135.22;4965221;28;20035;-60
2023/05/01 03:23:00;;;;;;;0.90;0.90;;;;;;;9.20;70.66;101130.97;4954531;28;20042;-61
2023/05/01 03:25:26;;;;;;;1.05;0.70;;;;;;;9.15;71.16;101133.88;4942176;28;20035;-61
2023/05/01 03:27:52;;;;;;;0.57;0.35;;;;;;;9.20;71.09;101132.84;4954206;28;20033;-60
2023/05/01 03:30:18;;;;;;;1.42;0.80;;;;;;;9.21;71.31;101129.06;4947716;28;20093;-60
2023/05/01 03:32:43;;;;;;;0.95;0.55;;;;;;;9.29;70.83;101123.56;4955063;28;20046;-61
2023/05/01 03:35:17;;;;;;;0.88;0.88;;;;;;;9.05;71.39;101124.34;4942025;28;20027;-61
2023/05/01 03:37:42;;;;;;;4.90;0.70;;;;;;;9.04;71.47;101122.75;4947574;28;20445;-60
2023/05/01 03:40:11;;;;;;;0.60;0.60;;;;;;;9.02;70.64;101127.66;4969161;28;20031;-59
2023/05/01 03:42:55;;;;;;;0.57;0.57;;;;;;;9.02;71.30;101119.63;4964250;28;20126;-57
2023/05/01 03:45:23;;;;;;;1.08;1.02;;;;;;;9.01;71.54;101119.94;4944073;28;20117;-61
2023/05/01 03:47:49;;;;;;;1.08;0.98;;;;;;;9.04;71.80;101117.38;4970944;28;20490;-59
2023/05/01 03:50:15;;;;;;;0.43;0.43;;;;;;;8.98;72.06;101110.66;4953083;28;20301;-59
2023/05/01 03:52:43;;;;;;;1.25;0.52;;;;;;;8.87;72.35;101106.03;4942038;29;20073;-60
2023/05/01 03:55:08;;;;;;;0.30;0.30;;;;;;;8.92;72.88;101106.59;4953336;28;20066;-60
2023/05/01 03:57:39;;;;;;;0.68;0.65;;;;;;;8.86;72.50;101099.91;4953609;28;20019;-60
2023/05/01 04:00:06;;;;;;;1.65;0.82;;;;;;;8.96;72.12;101096.00;4955060;28;20460;-61
2023/05/01 04:02:41;;;;;;;1.08;0.68;;;;;;;8.97;72.82;101100.25;4951674;28;20113;-61
2023/05/01 04:05:08;;;;;;;12.88;0.90;;;;;;;8.90;72.73;101094.63;4955640;28;20045;-61
2023/05/01 04:07:34;;;;;;;1.00;0.45;;;;;;;8.89;73.20;101095.75;4944162;28;20027;-60
2023/05/01 04:09:59;;;;;;;0.70;0.70;;;;;;;8.81;73.78;101091.25;4969810;28;20035;-59
2023/05/01 04:12:25;;;;;;;1.30;1.10;;;;;;;8.86;73.95;101094.53;4949529;28;20534;-59
2023/05/01 04:14:50;;;;;;;3.00;0.60;;;;;;;8.83;74.10;101095.19;4955595;28;20038;-61
2023/05/01 04:17:16;;;;;;;0.90;0.63;;;;;;;8.99;73.96;101088.06;4954168;28;20115;-59
2023/05/01 04:19:41;;;;;;;2.55;0.90;;;;;;;9.10;73.59;101073.06;4955560;28;20030;-60
2023/05/01 04:22:07;;;;;;;0.73;0.73;;;;;;;9.16;73.02;101070.16;4954943;28;20472;-60
2023/05/01 04:24:35;;;;;;;1.27;0.70;;;;;;;9.15;73.13;101068.59;4947914;28;20035;-59
2023/05/01 04:27:01;;;;;;;1.38;0.63;;;;;;;9.22;73.22;101064.25;4939979;28;20023;-60
2023/05/01 04:29:26;;;;;;;0.40;0.40;;;;;;;9.28;72.48;101064.78;4938276;28;20096;-58
2023/05/01 04:31:52;;;;;;;0.93;0.80;;;;;;;9.29;71.87;101069.06;4961282;28;20034;-61
2023/05/01 04:34:18;;;;;;;0.70;0.70;;;;;;;9.35;72.65;101076.56;4936450;28;20379;-59
2023/05/01 04:36:44;;;;;;;0.50;0.50;;;;;;;9.23;73.22;101065.81;4951455;28;20096;-61
2023/05/01 04:39:10;;;;;;;0.98;0.93;;;;;;;9.37;72.73;101078.94;4949013;28;20264;-61
2023/05/01 04:41:36;;;;;;;0.52;0.52;;;;;;;9.30;73.65;101065.25;4937106;28;20042;-61
2023/05/01 04:44:03;;;;;;;1.02;0.65;;;;;;;9.31;73.67;101064.91;4945704;28;20042;-60
2023/05/01 04:46:32;;;;;;;1.48;1.15;;;;;;;9.40;73.88;101060.22;4951093;28;20568;-61
2023/05/01 04:48:57;;;;;;;0.95;0.80;;;;;;;9.49;73.36;101057.41;4948825;28;20102;-61
2023/05/01 04:51:29;;;;;;;0.63;0.63;;;;;;;9.50;73.87;101056.28;4957716;28;20070;-60
2023/05/01 04:53:55;;;;;;;1.02;0.80;;;;;;;9.53;73.41;101047.53;4935132;28;20510;-60
2023/05/01 04:56:25;;;;;;;0.65;0.50;;;;;;;9.65;72.98;101055.59;4950039;28;20035;-61
2023/05/01 04:58:54;;;;;;;1.52;0.80;;;;;;;9.77;72.57;101053.69;4949533;28;20035;-61
2023/05/01 05:01:22;;;;;;;1.40;1.10;;;;;;;9.76;73.16;101062.06;4943351;28;20041;-61
2023/05/01 05:03:48;;;;;;;0.95;0.63;;;;;;;9.68;73.86;101060.28;4958345;28;20035;-61
2023/05/01 05:06:13;;;;;;;0.45;0.40;;;;;;;9.67;73.40;101061.44;4943062;28;20546;-61
2023/05/01 05:08:39;;;;;;;0.60;0.60;;;;;;;9.81;72.62;101059.16;4940502;28;20121;-61
2023/05/01 05:11:09;;;;;;;0.63;0.60;;;;;;;9.83;72.55;101063.06;4952095;28;20023;-61
2023/05/01 05:14:01;;;;;;;0.40;0.40;;;;;;;9.86;72.55;101058.94;4967755;28;20047;-61
2023/05/01 05:16:27;;;;;;;1.35;0.55;;;;;;;10.00;72.88;101062.03;4947704;28;20082;-60
2023/05/01 05:18:55;;;;;;;0.30;0.30;;;;;;;10.10;72.47;101066.97;4945701;28;20082;-61
2023/05/01 05:21:20;;;;;;;0.60;0.50;;;;;;;10.19;71.89;101069.53;4951850;28;20082;-61
2023/05/01 05:23:50;;;;;;;1.13;0.70;;;;;;;10.27;71.70;101069.41;4947278;28;20057;-61
2023/05/01 05:26:16;;;;;;;1.02;0.73;;;;;;;10.50;71.55;101053.47;4965876;28;20502;-61
2023/05/01 05:28:41;;;;;;;0.47;0.47;;;;;;;10.67;70.04;101063.94;4947011;28;20426;-61
2023/05/01 05:31:07;;;;;;;1.83;1.08;;;;;;;10.78;66.30;101056.94;4932510;28;20035;-61
2023/05/01 05:33:33;;;;;;;0.77;0.57;;;;;;;10.84;66.47;101061.69;4951798;28;20030;-61
2023/05/01 05:35:59;;;;;;;0.65;0.60;;;;;;;11.12;66.07;101058.16;4944598;28;20093;-61
2023/05/01 05:38:28;;;;;;;1.92;0.90;;;;;;;11.27;63.70;101060.06;4952975;28;20478;-61
2023/05/01 05:40:58;;;;;;;0.68;0.68;;;;;;;11.52;63.91;101061.41;4935474;28;20035;-61
2023/05/01 05:43:23;;;;;;;1.92;0.75;;;;;;;11.52;61.94;101040.63;4944987;28;20018;-56
2023/05/01 05:45:50;;;;;;;1.00;0.60;;;;;;;11.57;60.32;101059.25;4945614;28;20122;-60
2023/05/01 05:48:16;;;;;;;1.58;0.73;;;;;;;11.72;60.19;101044.19;4953136;28;20038;-60
2023/05/01 05:50:41;;;;;;;1.75;0.50;;;;;;;11.33;60.60;101043.28;4951492;28;20093;-60
2023/05/01 05:53:08;;;;;;;0.40;0.40;;;;;;;11.25;61.08;101041.53;4950746;28;20038;-60
2023/05/01 05:55:35;;;;;;;1.60;0.57;;;;;;;11.21;61.47;101048.75;4948288;28;20030;-59
2023/05/01 05:58:03;;;;;;;1.05;0.47;;;;;;;11.54;61.73;101048.38;4946155;28;20035;-59
2023/05/01 06:00:28;;;;;;;1.70;1.10;;;;;;;11.70;60.99;101051.84;4962476;28;20134;-58
2023/05/01 06:02:55;;;;;;;0.30;0.30;;;;;;;11.93;59.67;101054.66;4952199;28;20513;-61
2023/05/01 06:05:25;;;;;;;1.50;0.45;;;;;;;12.02;58.68;101047.91;4949962;28;20033;-61
2023/05/01 06:07:51;;;;;;;1.50;0.77;;;;;;;12.17;58.75;101047.09;4942775;28;20096;-61
2023/05/01 06:10:17;;;;;;;1.02;0.70;;;;;;;11.99;59.65;101051.31;4940829;28;20030;-61
2023/05/01 06:12:42;;;;;;;0.52;0.52;;;;;;;12.23;58.28;101045.63;4961538;28;20027;-62
2023/05/01 06:15:08;;;;;;;1.45;0.70;;;;;;;12.55;57.50;101032.75;4943387;28;20042;-62
2023/05/01 06:17:38;;;;;;;1.35;0.45;;;;;;;12.84;57.23;101040.22;4943471;28;20114;-62
2023/05/01 06:20:05;;;;;;;0.45;0.45;;;;;;;12.93;55.74;101029.94;4941398;28;20240;-60
2023/05/01 06:22:31;;;;;;;0.85;0.85;;;;;;;12.93;55.69;101031.88;4943810;28;20035;-62
2023/05/01 06:25:08;;;;;;;0.45;0.30;;;;;;;13.16;57.54;101033.44;4939781;28;20049;-61
2023/05/01 06:27:34;;;;;;;0.47;0.47;;;;;;;13.43;57.00;101029.63;4938209;28;20406;-61
2023/05/01 06:30:00;;;;;;;0.57;0.57;;;;;;;13.57;54.85;101026.34;4950089;28;20030;-62
2023/05/01 06:32:25;;;;;;;0.70;0.40;;;;;;;13.78;54.40;101028.56;4927399;29;20054;-62
2023/05/01 06:34:51;;;;;;;0.45;0.28;;;;;;;13.79;55.34;101030.13;4939199;28;20122;-62
2023/05/01 06:37:17;;;;;;;0.57;0.35;;;;;;;13.94;53.83;101034.56;4962405;28;20105;-61
2023/05/01 06:39:45;;;;;;;0.70;0.40;;;;;;;13.68;53.43;101027.28;4947130;28;20030;-61
2023/05/01 06:42:14;;;;;;;0.60;0.40;;;;;;;13.85;53.61;101015.91;4942826;28;20030;-61
2023/05/01 06:44:43;;;;;;;1.38;0.50;;;;;;;13.64;53.15;101020.25;4962839;28;20446;-61
2023/05/01 06:47:09;;;;;;;0.40;0.40;;;;;;;13.90;53.63;101020.22;4964195;28;20107;-62
2023/05/01 06:49:34;;;;;;;0.70;0.40;;;;;;;14.15;52.74;101021.31;4947831;28;20317;-62
2023/05/01 06:52:00;;;;;;;2.08;0.70;;;;;;;14.16;52.68;101015.50;4940133;28;20082;-62
2023/05/01 06:54:26;;;;;;;1.42;0.52;;;;;;;14.30;52.84;101017.63;4951501;28;20033;-60
2023/05/01 06:56:52;;;;;;;0.63;0.43;;;;;;;14.43;51.77;101011.59;4951537;28;20038;-61
2023/05/01 06:59:18;;;;;;;1.15;1.08;;;;;;;14.63;51.06;101012.19;4966517;28;20035;-61
2023/05/01 07:01:44;;;;;;;0.38;0.28;;;;;;;14.72;50.88;101007.22;4952541;28;20041;-61
2023/05/01 07:04:09;;;;;;;1.85;0.40;;;;;;;14.39;50.97;101007.28;4969660;28;20400;-61
2023/05/01 07:06:35;;;;;;;1.13;0.90;;;;;;;14.33;51.72;101006.84;4969997;28;20027;-62
2023/05/01 07:09:00;;;;;;;6.32;0.55;;;;;;;13.95;52.01;100993.59;4953366;28;20043;-61
2023/05/01 07:11:26;;;;;;;0.73;0.47;;;;;;;14.58;51.80;100995.44;4962911;28;20039;-62
2023/05/01 07:13:52;;;;;;;0.28;0.28;;;;;;;14.98;51.13;100996.19;4961569;28;20038;-61
2023/05/01 07:16:18;;;;;;;0.82;0.50;;;;;;;15.13;48.95;100988.97;4964926;28;20039;-62
2023/05/01 07:18:43;;;;;;;1.00;0.52;;;;;;;15.69;50.11;100989.34;4962410;28;20121;-62
2023/05/01 07:21:10;;;;;;;0.30;0.30;;;;;;;15.28;48.48;100996.03;4965172;28;20038;-60
2023/05/01 07:23:36;;;;;;;0.70;0.40;;;;;;;15.50;47.29;100995.06;4966599;28;20041;-58
2023/05/01 07:26:02;;;;;;;0.95;0.43;;;;;;;15.83;49.00;100994.81;4965230;28;20110;-62
2023/05/01 07:28:29;;;;;;;0.75;0.45;;;;;;;15.95;48.02;100985.56;4966152;28;20030;-62
2023/05/01 07:30:54;;;;;;;0.45;0.40;;;;;;;16.25;46.87;100983.31;4970056;28;20114;-62
2023/05/01 07:33:20;;;;;;;1.25;0.60;;;;;;;15.89;47.00;100982.41;4971841;28;20150;-60
2023/05/01 07:35:45;;;;;;;0.27;0.23;;;;;;;15.70;46.06;100981.97;4954335;28;20544;-61
2023/05/01 07:38:11;;;;;;;0.25;0.25;;;;;;;15.71;47.03;100976.16;4969467;28;20023;-62
2023/05/01 07:40:37;;;;;;;3.15;0.52;;;;;;;15.66;47.06;100979.22;4972349;28;20049;-60
2023/05/01 07:43:03;;;;;;;0.22;0.20;;;;;;;15.74;46.15;100964.50;4972987;28;20031;-62
2023/05/01 07:45:29;;;;;;;0.35;0.35;;;;;;;16.19;46.67;100969.34;4971829;28;20039;-62
2023/05/01 07:47:55;;;;;;;3.03;0.90;;;;;;;16.26;46.15;100979.44;4970145;28;20042;-62
2023/05/01 07:50:21;;;;;;;3.40;0.98;;;;;;;15.92;46.33;100959.94;4949734;28;20026;-62
2023/05/01 07:52:47;;;;;;;0.50;0.30;;;;;;;16.19;45.71;100961.19;4966140;28;20386;-62
2023/05/01 07:55:12;;;;;;;1.33;0.40;;;;;;;15.97;46.92;100953.34;4964413;28;20039;-61
2023/05/01 07:57:38;;;;;;;0.73;0.47;;;;;;;16.22;45.14;100948.75;4952478;28;20023;-62
2023/05/01 08:00:04;;;;;;;1.02;0.30;;;;;;;16.76;45.27;100953.88;4973035;28;20088;-62
2023/05/01 08:02:39;;;;;;;0.43;0.40;;;;;;;16.87;45.63;100949.22;4956800;28;20061;-62
2023/05/01 08:05:05;;;;;;;4.47;0.60;;;;;;;17.07;47.41;100947.63;4960188;28;20122;-62
2023/05/01 08:07:31;;;;;;;0.98;0.20;;;;;;;17.65;45.30;100949.09;4969484;28;20121;-62
2023/05/01 08:09:56;;;;;;;0.43;0.30;;;;;;;17.84;44.10;100943.97;4970974;28;20046;-62
2023/05/01 08:12:22;;;;;;;0.30;0.30;;;;;;;17.46;45.30;100942.09;4970449;28;20102;-62
2023/05/01 08:14:47;;;;;;;1.83;0.43;;;;;;;17.67;43.24;100936.59;4971454;28;20089;-61
2023/05/01 08:17:13;;;;;;;0.65;0.40;;;;;;;17.89;44.08;100940.81;4971391;28;20042;-62
2023/05/01 08:19:39;;;;;;;0.40;0.38;;;;;;;18.12;43.24;100934.06;4938364;28;20121;-60
2023/05/01 08:22:05;;;;;;;2.15;0.38;;;;;;;18.23;42.96;100937.50;4962629;28;20130;-61
2023/05/01 08:24:30;;;;;;;0.40;0.40;;;;;;;18.43;40.92;100941.28;4953763;28;20081;-61
2023/05/01 08:26:57;;;;;;;0.82;0.38;;;;;;;17.97;42.31;100942.31;4971180;28;20057;-60
2023/05/01 08:29:22;;;;;;;1.13;0.77;;;;;;;18.10;41.73;100941.88;4970708;28;20478;-61
2023/05/01 08:31:48;;;;;;;0.52;0.40;;;;;;;18.15;41.59;100925.88;4970836;28;20101;-61
2023/05/01 08:34:14;;;;;;;0.70;0.47;;;;;;;18.15;42.42;100928.59;4961979;28;20057;-61
2023/05/01 08:36:39;;;;;;;0.47;0.45;;;;;;;18.21;41.87;100927.00;4967458;28;20058;-61
2023/05/01 08:39:05;;;;;;;0.30;0.30;;;;;;;18.33;42.11;100931.97;4966262;28;20054;-59
2023/05/01 08:41:34;;;;;;;0.40;0.30;;;;;;;18.77;42.38;100936.75;4969802;28;20039;-61
2023/05/01 08:44:03;;;;;;;0.60;0.40;;;;;;;18.69;41.84;100925.13;4954265;28;20114;-60
2023/05/01 08:46:43;;;;;;;0.45;0.30;;;;;;;18.82;42.05;100917.97;4965529;28;20041;-60
2023/05/01 08:49:12;;;;;;;0.40;0.15;;;;;;;18.57;42.34;100919.34;4968386;28;20070;-61
2023/05/01 08:51:38;;;;;;;1.20;0.63;;;;;;;18.91;42.91;100920.25;4965193;28;20042;-59
2023/05/01 08:54:07;;;;;;;0.50;0.30;;;;;;;19.24;43.24;100916.00;4951808;28;20073;-60
2023/05/01 08:56:35;;;;;;;0.43;0.30;;;;;;;19.62;42.42;100928.47;4969729;28;20030;-61
2023/05/01 08:59:04;;;;;;;0.40;0.40;;;;;;;19.76;42.14;100912.66;4964526;28;20030;-55
2023/05/01 09:01:31;;;;;;;0.32;0.25;;;;;;;19.71;41.02;100913.13;4964320;28;20039;-55
2023/05/01 09:04:00;;;;;;;0.68;0.65;;;;;;;19.55;41.33;100912.91;4964334;28;20494;-58
2023/05/01 09:06:28;;;;;;;3.03;0.40;;;;;;;19.48;41.43;100912.22;4967295;28;20482;-53
2023/05/01 09:08:53;;;;;;;1.52;0.88;;;;;;;19.79;40.96;100909.13;4941682;28;20047;-51
2023/05/01 09:11:21;;;;;;;1.45;0.40;;;;;;;19.84;40.90;100907.09;4963139;28;20086;-49
2023/05/01 09:13:47;;;;;;;0.40;0.30;;;;;;;20.12;40.04;100896.53;4963768;28;20109;-51
2023/05/01 09:16:12;;;;;;;5.25;1.00;;;;;;;20.35;40.52;100901.28;4967326;28;20118;-52
2023/05/01 09:18:40;;;;;;;1.23;0.40;;;;;;;20.60;40.05;100894.22;4969174;28;20093;-50
2023/05/01 09:21:05;;;;;;;1.25;0.60;;;;;;;20.43;37.63;100891.78;4970759;28;20043;-54
2023/05/01 09:23:32;;;;;;;0.30;0.30;;;;;;;20.63;38.20;100895.38;4968147;28;20050;-50
2023/05/01 09:25:58;;;;;;;0.63;0.30;;;;;;;20.90;36.98;100895.28;4953533;28;20035;-51
2023/05/01 09:28:40;;;;;;;0.28;0.28;;;;;;;20.24;37.87;100890.53;4968195;28;20449;-48
2023/05/01 09:31:27;;;;;;;0.60;0.40;;;;;;;20.57;37.86;100884.13;4969607;28;20037;-52
2023/05/01 09:34:00;;;;;;;0.32;0.32;;;;;;;20.35;37.74;100877.44;4951865;28;20401;-53
2023/05/01 09:36:29;;;;;;;0.38;0.20;;;;;;;20.63;36.93;100895.38;4965000;28;20397;-53
2023/05/01 09:38:56;;;;;;;0.55;0.30;;;;;;;20.01;37.42;100884.22;4960289;28;20038;-56
2023/05/01 09:41:22;;;;;;;1.55;0.50;;;;;;;20.38;37.06;100875.84;4968508;28;20038;-58
2023/05/01 09:43:50;;;;;;;0.20;0.20;;;;;;;20.25;36.78;100869.41;4949978;28;20465;-56
2023/05/01 09:46:15;;;;;;;0.28;0.20;;;;;;;20.61;37.63;100873.13;4951871;28;20039;-59
2023/05/01 09:48:51;;;;;;;0.55;0.35;;;;;;;20.99;36.45;100873.59;4968237;28;20045;-58
2023/05/01 09:51:19;;;;;;;0.40;0.38;;;;;;;20.52;36.20;100870.13;4963046;28;20117;-55
2023/05/01 09:53:45;;;;;;;0.90;0.50;;;;;;;20.54;36.64;100863.06;4970587;28;20058;-51
2023/05/01 09:56:11;;;;;;;0.80;0.35;;;;;;;20.77;36.42;100873.19;4967583;28;20070;-57
2023/05/01 09:58:36;;;;;;;0.60;0.50;;;;;;;21.31;36.14;100863.59;4967836;28;20122;-53
2023/05/01 10:01:01;;;;;;;2.15;0.55;;;;;;;21.53;36.05;100853.72;4969266;28;20050;-55
2023/05/01 10:03:27;;;;;;;1.10;0.50;;;;;;;21.07;34.66;100853.13;4968794;28;20121;-50
2023/05/01 10:05:55;;;;;;;0.93;0.40;;;;;;;20.48;35.45;100851.03;4967061;28;20087;-51
2023/05/01 10:08:21;;;;;;;0.40;0.30;;;;;;;20.77;35.88;100845.81;4963994;28;20113;-53
2023/05/01 10:10:59;;;;;;;0.20;0.20;;;;;;;21.23;35.71;100836.75;4949683;28;20114;-55
2023/05/01 10:13:24;;;;;;;0.40;0.25;;;;;;;20.53;35.45;100836.88;4967601;28;20035;-60
2023/05/01 10:15:50;;;;;;;0.22;0.20;;;;;;;21.08;34.96;100841.00;4964184;28;20037;-55
2023/05/01 10:18:16;;;;;;;0.55;0.30;;;;;;;20.81;35.66;100835.59;4963420;28;20066;-56
2023/05/01 10:20:42;;;;;;;0.50;0.30;;;;;;;21.21;35.17;100836.41;4967891;28;20034;-53
2023/05/01 10:23:11;;;;;;;1.42;0.85;;;;;;;21.29;34.64;100830.34;4965768;28;20019;-56
2023/05/01 10:25:37;;;;;;;0.63;0.63;;;;;;;22.27;34.45;100829.31;4957074;28;20050;-53
2023/05/01 10:28:04;;;;;;;1.35;0.60;;;;;;;22.63;32.71;100830.00;4964534;28;21541;-61
2023/05/01 10:30:30;;;;;;;0.65;0.30;;;;;;;22.78;31.39;100824.91;4951986;28;20034;-53
2023/05/01 10:32:56;;;;;;;0.50;0.40;;;;;;;22.29;32.41;100813.22;4971008;28;20054;-58
2023/05/01 10:35:26;;;;;;;0.47;0.43;;;;;;;22.52;32.35;100825.94;4970335;28;20121;-56
2023/05/01 10:38:00;;;;;;;0.57;0.30;;;;;;;22.47;33.85;100810.00;4967647;28;20034;-54
2023/05/01 10:40:38;;;;;;;0.10;0.10;;;;;;;22.73;33.25;100812.47;4948851;28;20297;-50
2023/05/01 10:43:27;;;;;;;0.15;0.10;;;;;;;23.15;32.00;100814.03;4969590;28;20512;-57
2023/05/01 10:46:14;;;;;;;1.30;0.38;;;;;;;23.72;31.05;100804.88;4967691;28;20046;-54
2023/05/01 10:48:41;;;;;;;0.30;0.30;;;;;;;23.97;32.07;100815.88;4955999;28;20045;-52
2023/05/01 10:51:14;;;;;;;1.10;0.40;;;;;;;23.49;30.96;100796.19;4967173;28;20363;-53
2023/05/01 10:53:48;;;;;;;2.47;0.57;;;;;;;23.21;31.19;100790.28;4965228;28;20038;-58
2023/05/01 10:56:33;;;;;;;1.38;0.30;;;;;;;23.47;32.61;100790.34;4965827;28;20031;-53
2023/05/01 10:59:03;;;;;;;3.72;0.65;;;;;;;23.63;31.17;100787.50;4951633;28;20438;-55
2023/05/01 11:01:32;;;;;;;1.00;0.30;;;;;;;23.72;32.00;100787.59;4970465;28;20042;-54
2023/05/01 11:03:59;;;;;;;1.63;0.30;;;;;;;23.98;31.05;100789.13;4971313;28;20126;-53
2023/05/01 11:06:25;;;;;;;0.50;0.30;;;;;;;24.03;30.17;100791.34;4967657;28;20057;-56
2023/05/01 11:08:50;;;;;;;0.38;0.32;;;;;;;23.73;29.98;100783.66;4951333;28;20107;-56
2023/05/01 11:11:20;;;;;;;0.50;0.40;;;;;;;23.36;30.41;100765.16;4967674;28;20085;-56
2023/05/01 11:13:58;;;;;;;1.48;0.40;;;;;;;23.42;32.62;100766.16;4968533;28;20043;-53
2023/05/01 11:16:40;;;;;;;0.43;0.30;;;;;;;23.43;33.12;100770.44;4966752;28;20035;-54
2023/05/01 11:19:21;;;;;;;0.40;0.30;;;;;;;23.39;31.76;100758.78;4950205;28;20042;-55
2023/05/01 11:21:47;;;;;;;0.65;0.30;;;;;;;23.59;31.79;100765.59;4966910;28;20035;-54
2023/05/01 11:24:13;;;;;;;0.28;0.28;;;;;;;23.72;31.87;100762.84;4966609;28;20027;-53
2023/05/01 11:26:40;;;;;;;1.52;0.50;;;;;;;23.96;30.83;100764.78;4965780;28;20038;-54
2023/05/01 11:29:06;;;;;;;0.90;0.40;;;;;;;24.24;31.33;100759.56;4961448;28;20392;-54
2023/05/01 11:31:32;;;;;;;0.35;0.30;;;;;;;24.35;31.59;100763.50;4966750;28;20031;-56